createdAt,value
2023-02-27T00:00:14.954Z,9.40
2023-02-27T00:03:02.757Z,8.50
2023-02-27T00:05:30.573Z,9.50
2023-02-27T00:07:58.316Z,12.80
2023-02-27T00:10:26.108Z,10.50
2023-02-27T00:12:53.930Z,10.50
2023-02-27T00:15:22.612Z,9.90
2023-02-27T00:17:50.423Z,9.90
2023-02-27T00:20:19.479Z,9.40
2023-02-27T00:22:53.799Z,9.20
2023-02-27T00:25:21.510Z,12.20
2023-02-27T00:27:49.329Z,8.60
2023-02-27T00:30:23.754Z,14.20
2023-02-27T00:32:51.398Z,10.80
2023-02-27T00:35:19.336Z,12.80
2023-02-27T00:37:47.312Z,12.00
2023-02-27T00:40:15.256Z,8.70
2023-02-27T00:42:43.265Z,11.40
2023-02-27T00:45:11.051Z,14.80
2023-02-27T00:47:38.933Z,8.20
2023-02-27T00:50:07.165Z,10.40
2023-02-27T00:52:34.980Z,9.90
2023-02-27T00:55:03.014Z,12.00
2023-02-27T00:57:30.848Z,10.50
2023-02-27T00:59:58.834Z,10.90
2023-02-27T01:02:27.014Z,11.00
2023-02-27T01:04:56.690Z,8.10
2023-02-27T01:07:24.985Z,12.20
2023-02-27T01:10:00.973Z,9.70
2023-02-27T01:12:35.992Z,11.50
2023-02-27T01:15:11.240Z,12.70
2023-02-27T01:17:42.829Z,7.30
2023-02-27T01:20:12.245Z,6.10
2023-02-27T01:22:40.168Z,6.20
2023-02-27T01:25:08.565Z,8.70
2023-02-27T01:27:40.887Z,11.60
2023-02-27T01:30:11.351Z,11.00
2023-02-27T01:32:49.387Z,6.90
2023-02-27T01:35:17.990Z,9.10
2023-02-27T01:37:45.741Z,9.20
2023-02-27T01:40:13.733Z,17.90
2023-02-27T01:42:41.382Z,7.90
2023-02-27T01:45:12.248Z,7.10
2023-02-27T01:47:42.629Z,7.80
2023-02-27T01:50:10.715Z,10.30
2023-02-27T01:52:39.764Z,9.20
2023-02-27T01:55:08.807Z,10.70
2023-02-27T01:57:36.723Z,6.80
2023-02-27T02:00:06.193Z,7.80
2023-02-27T02:02:42.654Z,5.70
2023-02-27T02:05:10.741Z,8.60
2023-02-27T02:07:39.846Z,8.40
2023-02-27T02:10:08.091Z,4.50
2023-02-27T02:12:36.844Z,5.30
2023-02-27T02:15:06.157Z,6.20
2023-02-27T02:17:47.980Z,5.30
2023-02-27T02:20:21.790Z,10.40
2023-02-27T02:22:49.454Z,7.70
2023-02-27T02:25:26.553Z,7.20
2023-02-27T02:27:57.168Z,9.40
2023-02-27T02:30:37.342Z,9.70
2023-02-27T02:33:14.557Z,8.00
2023-02-27T02:35:53.442Z,5.80
2023-02-27T02:38:41.466Z,7.30
2023-02-27T02:41:11.871Z,10.30
2023-02-27T02:43:40.660Z,6.50
2023-02-27T02:46:10.201Z,6.40
2023-02-27T02:48:45.694Z,8.50
2023-02-27T02:51:22.620Z,17.50
2023-02-27T02:54:01.611Z,5.50
2023-02-27T02:56:35.747Z,7.30
2023-02-27T02:59:06.466Z,9.20
2023-02-27T03:01:37.472Z,8.50
2023-02-27T03:04:05.287Z,10.60
2023-02-27T03:06:34.517Z,8.30
2023-02-27T03:09:06.116Z,5.90
2023-02-27T03:11:36.189Z,5.90
2023-02-27T03:14:08.997Z,7.90
2023-02-27T03:16:47.688Z,10.20
2023-02-27T03:19:33.830Z,9.00
2023-02-27T03:22:15.139Z,8.00
2023-02-27T03:24:49.088Z,6.80
2023-02-27T03:27:18.654Z,5.60
2023-02-27T03:29:52.915Z,7.40
2023-02-27T03:32:42.617Z,10.00
2023-02-27T03:35:12.076Z,8.70
2023-02-27T03:37:45.944Z,5.70
2023-02-27T03:40:26.012Z,4.00
2023-02-27T03:42:53.668Z,5.40
2023-02-27T03:45:26.347Z,6.30
2023-02-27T03:47:54.397Z,6.70
2023-02-27T03:50:22.715Z,6.40
2023-02-27T03:52:51.045Z,5.30
2023-02-27T03:55:25.173Z,4.90
2023-02-27T03:57:53.751Z,7.00
2023-02-27T04:00:22.940Z,6.60
2023-02-27T04:02:51.662Z,5.60
2023-02-27T04:05:29.947Z,8.20
2023-02-27T04:08:24.116Z,12.90
2023-02-27T04:11:10.020Z,10.50
2023-02-27T04:13:54.032Z,14.70
2023-02-27T04:16:39.745Z,13.60
2023-02-27T04:19:19.868Z,13.20
2023-02-27T04:21:53.800Z,15.30
2023-02-27T04:24:27.681Z,8.20
2023-02-27T04:26:59.514Z,8.80
2023-02-27T04:29:48.500Z,11.40
2023-02-27T04:32:36.554Z,8.90
2023-02-27T04:35:10.050Z,8.50
2023-02-27T04:37:43.523Z,8.90
2023-02-27T04:40:15.306Z,11.30
2023-02-27T04:42:48.153Z,10.90
2023-02-27T04:45:19.101Z,13.50
2023-02-27T04:47:49.266Z,15.60
2023-02-27T04:50:20.606Z,13.90
2023-02-27T04:52:51.558Z,18.40
2023-02-27T04:55:27.509Z,11.90
2023-02-27T04:58:07.855Z,18.40
2023-02-27T05:00:37.516Z,12.70
2023-02-27T05:03:18.766Z,24.00
2023-02-27T05:05:51.833Z,23.80
2023-02-27T05:08:28.340Z,26.00
2023-02-27T05:11:09.280Z,14.80
2023-02-27T05:13:48.050Z,16.80
2023-02-27T05:16:24.933Z,12.70
2023-02-27T05:18:53.463Z,13.00
2023-02-27T05:21:24.872Z,12.50
2023-02-27T05:23:58.908Z,12.50
2023-02-27T05:29:05.541Z,7.70
2023-02-27T05:31:54.732Z,9.40
2023-02-27T05:34:27.879Z,12.20
2023-02-27T05:36:56.235Z,8.80
2023-02-27T05:39:26.134Z,11.20
2023-02-27T05:41:56.560Z,8.70
2023-02-27T05:44:27.320Z,6.70
2023-02-27T05:47:15.182Z,7.70
2023-02-27T05:49:45.468Z,9.80
2023-02-27T05:52:16.409Z,9.00
2023-02-27T05:54:47.688Z,9.80
2023-02-27T05:57:17.722Z,15.40
2023-02-27T06:00:08.754Z,10.30
2023-02-27T06:02:45.494Z,11.60
2023-02-27T06:05:14.478Z,9.60
2023-02-27T06:07:42.259Z,6.40
2023-02-27T06:10:19.891Z,12.60
2023-02-27T06:12:47.666Z,19.70
2023-02-27T06:15:16.688Z,22.90
2023-02-27T06:17:44.312Z,21.20
2023-02-27T06:20:12.472Z,16.40
2023-02-27T06:22:40.203Z,15.00
2023-02-27T06:25:08.255Z,13.10
2023-02-27T06:27:36.028Z,14.10
2023-02-27T06:30:04.241Z,11.80
2023-02-27T06:32:31.937Z,11.40
2023-02-27T06:35:06.821Z,9.80
2023-02-27T06:37:34.768Z,13.10
2023-02-27T06:40:02.662Z,14.10
2023-02-27T06:42:30.317Z,10.70
2023-02-27T06:44:58.049Z,17.70
2023-02-27T06:47:26.622Z,14.90
2023-02-27T06:49:54.446Z,15.70
2023-02-27T06:52:22.282Z,15.10
2023-02-27T06:54:49.882Z,10.80
2023-02-27T06:57:17.831Z,11.10
2023-02-27T06:59:45.596Z,14.20
2023-02-27T07:02:13.966Z,9.60
2023-02-27T07:04:42.218Z,13.20
2023-02-27T07:07:36.418Z,13.70
2023-02-27T07:09:58.363Z,20.90
2023-02-27T07:12:30.310Z,18.30
2023-02-27T07:14:58.141Z,15.90
2023-02-27T07:17:25.897Z,17.50
2023-02-27T07:19:54.663Z,15.40
2023-02-27T07:22:22.534Z,21.00
2023-02-27T07:24:50.222Z,15.40
2023-02-27T07:27:17.938Z,17.90
2023-02-27T07:29:46.361Z,15.20
2023-02-27T07:32:14.555Z,18.30
2023-02-27T07:34:42.386Z,13.90
2023-02-27T07:37:16.536Z,12.70
2023-02-27T07:39:45.171Z,13.70
2023-02-27T07:42:13.088Z,19.50
2023-02-27T07:44:41.169Z,25.40
2023-02-27T07:47:15.264Z,30.70
2023-02-27T07:49:43.753Z,31.50
2023-02-27T07:52:11.627Z,26.00
2023-02-27T07:54:39.398Z,25.90
2023-02-27T07:57:07.156Z,20.90
2023-02-27T07:59:34.862Z,10.20
2023-02-27T08:02:02.636Z,15.00
2023-02-27T08:04:30.646Z,12.10
2023-02-27T08:06:58.404Z,10.90
2023-02-27T08:09:26.407Z,9.60
2023-02-27T08:11:54.060Z,11.50
2023-02-27T08:14:21.786Z,7.40
2023-02-27T08:16:55.646Z,8.70
2023-02-27T08:19:23.356Z,6.40
2023-02-27T08:21:51.090Z,9.50
2023-02-27T08:24:18.900Z,10.60
2023-02-27T08:26:53.372Z,10.80
2023-02-27T08:29:21.133Z,10.80
2023-02-27T08:31:49.115Z,18.20
2023-02-27T08:34:17.015Z,14.20
2023-02-27T08:36:45.185Z,9.90
2023-02-27T08:39:13.020Z,6.50
2023-02-27T08:41:45.084Z,7.00
2023-02-27T08:44:13.128Z,8.40
2023-02-27T08:46:41.000Z,4.30
2023-02-27T08:49:08.713Z,6.30
2023-02-27T08:51:36.401Z,6.10
2023-02-27T08:54:04.235Z,11.70
2023-02-27T08:56:34.572Z,9.60
2023-02-27T08:59:02.730Z,8.00
2023-02-27T09:01:34.647Z,7.50
2023-02-27T09:04:03.213Z,5.90
2023-02-27T09:06:37.500Z,8.90
2023-02-27T09:09:05.670Z,5.90
2023-02-27T09:11:33.736Z,10.90
2023-02-27T09:14:01.544Z,6.90
2023-02-27T09:16:29.778Z,6.30
2023-02-27T09:18:57.714Z,5.70
2023-02-27T09:21:25.389Z,9.50
2023-02-27T09:23:53.207Z,8.60
2023-02-27T09:26:24.542Z,5.80
2023-02-27T09:29:01.463Z,5.80
2023-02-27T09:31:33.251Z,9.20
2023-02-27T09:34:01.830Z,4.60
2023-02-27T09:36:29.932Z,5.00
2023-02-27T09:38:58.624Z,3.50
2023-02-27T09:41:45.424Z,4.60
2023-02-27T09:44:30.654Z,6.60
2023-02-27T09:47:05.808Z,7.40
2023-02-27T09:49:41.694Z,2.50
2023-02-27T09:52:13.520Z,14.40
2023-02-27T09:54:42.601Z,3.30
2023-02-27T09:57:18.799Z,3.00
2023-02-27T09:59:53.340Z,2.40
2023-02-27T10:02:40.110Z,2.00
2023-02-27T10:05:10.779Z,1.70
2023-02-27T10:07:41.722Z,2.30
2023-02-27T10:10:18.931Z,3.30
2023-02-27T10:13:05.516Z,11.00
2023-02-27T10:15:37.629Z,8.10
2023-02-27T10:18:25.570Z,2.20
2023-02-27T10:20:56.505Z,2.80
2023-02-27T10:23:43.520Z,2.70
2023-02-27T10:26:19.275Z,4.10
2023-02-27T10:28:47.184Z,3.00
2023-02-27T10:31:18.169Z,2.70
2023-02-27T10:33:48.387Z,2.40
2023-02-27T10:36:33.484Z,5.50
2023-02-27T10:39:04.650Z,1.90
2023-02-27T10:41:33.313Z,3.50
2023-02-27T10:44:01.207Z,2.80
2023-02-27T10:46:31.141Z,3.30
2023-02-27T10:49:00.566Z,2.20
2023-02-27T10:51:31.486Z,4.80
2023-02-27T10:54:34.685Z,4.30
2023-02-27T10:57:03.158Z,2.60
2023-02-27T10:59:38.354Z,5.90
2023-02-27T11:02:20.941Z,6.50
2023-02-27T11:04:53.793Z,4.20
2023-02-27T11:07:33.585Z,4.40
2023-02-27T11:10:03.270Z,4.30
2023-02-27T11:12:38.641Z,3.80
2023-02-27T11:15:15.602Z,3.90
2023-02-27T11:17:43.874Z,4.30
2023-02-27T11:20:31.958Z,3.70
2023-02-27T11:23:07.711Z,4.30
2023-02-27T11:25:36.076Z,3.30
2023-02-27T11:28:24.408Z,5.70
2023-02-27T11:30:57.246Z,5.10
2023-02-27T11:33:26.334Z,6.90
2023-02-27T11:35:57.344Z,4.40
2023-02-27T11:38:27.728Z,6.50
2023-02-27T11:41:05.792Z,3.10
2023-02-27T11:43:48.452Z,6.70
2023-02-27T11:46:41.692Z,3.70
2023-02-27T11:49:26.034Z,3.00
2023-02-27T11:52:20.370Z,2.80
2023-02-27T11:54:56.003Z,3.00
2023-02-27T11:57:24.196Z,5.40
2023-02-27T12:00:01.691Z,13.60
2023-02-27T12:02:48.133Z,4.60
2023-02-27T12:05:22.687Z,2.60
2023-02-27T12:10:24.205Z,2.80
2023-02-27T12:12:53.925Z,3.80
2023-02-27T12:15:27.804Z,5.60
2023-02-27T12:18:11.054Z,7.90
2023-02-27T12:20:45.956Z,3.60
2023-02-27T12:23:33.994Z,3.40
2023-02-27T12:26:05.665Z,8.80
2023-02-27T12:28:37.624Z,3.80
2023-02-27T12:31:24.118Z,3.80
2023-02-27T12:33:54.982Z,7.10
2023-02-27T12:36:29.000Z,3.40
2023-02-27T12:38:56.929Z,8.20
2023-02-27T12:41:36.812Z,7.70
2023-02-27T12:44:18.851Z,7.80
2023-02-27T12:46:58.852Z,5.20
2023-02-27T12:49:32.808Z,2.50
2023-02-27T12:55:01.588Z,6.70
2023-02-27T12:57:32.639Z,3.30
2023-02-27T13:00:19.772Z,4.50
2023-02-27T13:02:54.125Z,6.70
2023-02-27T13:05:32.473Z,4.80
2023-02-27T13:08:15.185Z,6.30
2023-02-27T13:10:45.486Z,2.80
2023-02-27T13:13:20.652Z,4.10
2023-02-27T13:15:57.298Z,3.60
2023-02-27T13:18:31.325Z,8.10
2023-02-27T13:21:12.706Z,3.90
2023-02-27T13:24:03.406Z,3.90
2023-02-27T13:26:34.507Z,3.30
2023-02-27T13:29:03.214Z,2.80
2023-02-27T13:31:50.223Z,16.50
2023-02-27T13:34:29.864Z,5.70
2023-02-27T13:37:08.824Z,4.50
2023-02-27T13:39:37.115Z,5.80
2023-02-27T13:42:05.379Z,4.90
2023-02-27T13:44:36.101Z,4.00
2023-02-27T13:47:23.832Z,5.60
2023-02-27T13:49:51.564Z,3.70
2023-02-27T13:52:27.995Z,3.30
2023-02-27T13:54:59.880Z,2.40
2023-02-27T13:57:35.225Z,4.40
2023-02-27T14:00:09.255Z,5.30
2023-02-27T14:02:57.767Z,3.50
2023-02-27T14:05:30.254Z,3.90
2023-02-27T14:08:17.115Z,4.60
2023-02-27T14:10:57.483Z,2.90
2023-02-27T14:13:44.346Z,4.00
2023-02-27T14:16:12.943Z,9.50
2023-02-27T14:18:58.508Z,2.50
2023-02-27T14:21:45.253Z,2.80
2023-02-27T14:24:15.043Z,3.60
2023-02-27T14:26:46.492Z,4.30
2023-02-27T14:29:17.031Z,2.70
2023-02-27T14:31:45.123Z,6.00
2023-02-27T14:34:19.952Z,4.10
2023-02-27T14:36:51.829Z,11.70
2023-02-27T14:39:23.467Z,6.10
2023-02-27T14:42:10.485Z,3.60
2023-02-27T14:44:40.437Z,3.90
2023-02-27T14:47:13.214Z,1.90
2023-02-27T14:52:35.096Z,2.90
2023-02-27T14:55:32.660Z,2.90
2023-02-27T14:58:24.464Z,4.10
2023-02-27T15:01:02.534Z,3.10
2023-02-27T15:03:44.289Z,2.90
2023-02-27T15:06:14.124Z,3.00
2023-02-27T15:08:42.494Z,4.50
2023-02-27T15:11:14.176Z,4.00
2023-02-27T15:13:43.742Z,3.70
2023-02-27T15:16:21.200Z,4.10
2023-02-27T15:18:50.992Z,8.40
2023-02-27T15:21:20.254Z,12.10
2023-02-27T15:24:14.482Z,5.70
2023-02-27T15:26:43.142Z,9.70
2023-02-27T15:29:16.959Z,7.40
2023-02-27T15:31:45.806Z,6.10
2023-02-27T15:34:15.054Z,10.10
2023-02-27T15:36:52.256Z,14.00
2023-02-27T15:39:24.656Z,17.50
2023-02-27T15:41:53.441Z,26.30
2023-02-27T15:44:25.484Z,49.10
2023-02-27T15:46:53.768Z,33.00
2023-02-27T15:49:23.299Z,25.90
2023-02-27T15:51:55.629Z,19.50
2023-02-27T15:54:23.465Z,19.20
2023-02-27T15:56:52.078Z,16.20
2023-02-27T15:59:20.107Z,20.70
2023-02-27T16:01:50.367Z,16.20
2023-02-27T16:04:22.705Z,28.20
2023-02-27T16:06:53.061Z,28.90
2023-02-27T16:09:30.458Z,38.90
2023-02-27T16:12:17.047Z,38.60
2023-02-27T16:14:45.313Z,31.50
2023-02-27T16:17:32.897Z,41.10
2023-02-27T16:20:02.651Z,104.90
2023-02-27T16:22:30.558Z,118.30
2023-02-27T16:25:08.127Z,237.10
2023-02-27T16:27:36.462Z,163.10
2023-02-27T16:30:09.975Z,103.30
2023-02-27T16:32:42.702Z,75.70
2023-02-27T16:35:19.125Z,41.60
2023-02-27T16:38:03.736Z,32.70
2023-02-27T16:40:31.600Z,21.40
2023-02-27T16:43:01.783Z,17.20
2023-02-27T16:45:31.305Z,18.20
2023-02-27T16:47:59.929Z,14.10
2023-02-27T16:50:29.310Z,17.70
2023-02-27T16:52:57.612Z,34.10
2023-02-27T16:55:25.983Z,16.30
2023-02-27T16:57:53.817Z,19.10
2023-02-27T17:00:22.774Z,12.60
2023-02-27T17:02:51.227Z,9.60
2023-02-27T17:05:19.202Z,7.50
2023-02-27T17:07:47.232Z,12.40
2023-02-27T17:10:19.155Z,6.20
2023-02-27T17:12:48.013Z,9.60
2023-02-27T17:15:16.155Z,9.20
2023-02-27T17:17:44.325Z,8.80
2023-02-27T17:20:12.998Z,9.60
2023-02-27T17:22:44.742Z,11.50
2023-02-27T17:25:13.271Z,11.80
2023-02-27T17:27:44.236Z,13.40
2023-02-27T17:30:12.412Z,11.70
2023-02-27T17:32:44.009Z,8.60
2023-02-27T17:35:11.763Z,9.90
2023-02-27T17:37:39.506Z,12.30
2023-02-27T17:40:11.936Z,18.50
2023-02-27T17:42:40.231Z,15.10
2023-02-27T17:45:28.434Z,15.60
2023-02-27T17:47:56.485Z,16.30
2023-02-27T17:59:02.221Z,25.30
2023-02-27T18:01:30.269Z,21.20
2023-02-27T18:03:58.485Z,23.60
2023-02-27T18:06:26.529Z,30.50
2023-02-27T18:08:54.769Z,25.10
2023-02-27T18:13:56.767Z,36.00
2023-02-27T18:16:25.167Z,30.90
2023-02-27T18:18:53.122Z,31.30
2023-02-27T18:21:22.920Z,24.60
2023-02-27T18:23:51.494Z,21.80
2023-02-27T18:26:29.502Z,24.70
2023-02-27T18:29:02.770Z,25.40
2023-02-27T18:31:35.460Z,32.40
2023-02-27T18:34:03.728Z,34.30
2023-02-27T18:36:32.658Z,49.00
2023-02-27T18:39:00.469Z,45.90
2023-02-27T18:41:29.431Z,46.60
2023-02-27T18:43:58.717Z,37.90
2023-02-27T18:46:27.449Z,40.80
2023-02-27T18:48:55.816Z,37.60
2023-02-27T18:51:23.871Z,51.40
2023-02-27T18:53:52.006Z,98.00
2023-02-27T18:56:22.993Z,139.70
2023-02-27T18:58:51.419Z,143.70
2023-02-27T19:01:28.952Z,145.40
2023-02-27T19:04:03.438Z,104.20
2023-02-27T19:06:33.159Z,124.00
2023-02-27T19:09:01.230Z,216.70
2023-02-27T19:11:33.478Z,181.70
2023-02-27T19:14:15.991Z,166.20
2023-02-27T19:16:44.351Z,161.20
2023-02-27T19:19:12.298Z,188.40
2023-02-27T19:21:40.211Z,226.80
2023-02-27T19:28:18.649Z,180.60
2023-02-27T19:35:18.433Z,236.70
2023-02-27T19:37:50.649Z,238.70
2023-02-27T19:40:19.284Z,238.60
2023-02-27T19:42:47.925Z,253.40
2023-02-27T19:45:16.006Z,250.20
2023-02-27T19:47:44.262Z,327.20
2023-02-27T19:50:12.843Z,295.50
2023-02-27T19:52:40.552Z,319.50
2023-02-27T19:55:11.733Z,352.70
2023-02-27T19:57:39.589Z,364.80
2023-02-27T20:00:29.758Z,341.40
2023-02-27T20:02:57.768Z,367.60
2023-02-27T20:05:26.309Z,354.00
2023-02-27T20:07:54.438Z,362.80
2023-02-27T20:10:22.251Z,354.20
2023-02-27T20:12:50.789Z,357.60
2023-02-27T20:15:19.454Z,378.90
2023-02-27T20:17:47.421Z,315.80
2023-02-27T20:20:15.251Z,327.10
2023-02-27T20:22:43.772Z,305.40
2023-02-27T20:25:12.051Z,284.10
2023-02-27T20:27:40.113Z,282.10
2023-02-27T20:30:08.478Z,202.00
2023-02-27T20:32:39.743Z,255.50
2023-02-27T20:35:07.877Z,184.10
2023-02-27T20:37:36.178Z,158.80
2023-02-27T20:40:04.528Z,120.50
2023-02-27T20:42:32.606Z,139.70
2023-02-27T20:45:00.308Z,89.10
2023-02-27T20:47:28.679Z,104.50
2023-02-27T20:49:56.987Z,100.30
2023-02-27T20:52:35.583Z,45.60
2023-02-27T20:55:03.439Z,32.30
2023-02-27T20:57:33.521Z,36.00
2023-02-27T21:00:01.597Z,100.40
2023-02-27T21:02:29.550Z,43.00
2023-02-27T21:04:58.346Z,34.70
2023-02-27T21:07:26.275Z,31.50
2023-02-27T21:09:57.780Z,23.10
2023-02-27T21:12:31.700Z,43.40
2023-02-27T21:17:33.773Z,114.20
2023-02-27T21:20:06.871Z,145.70
2023-02-27T21:22:38.814Z,122.20
2023-02-27T21:25:06.663Z,116.90
2023-02-27T21:27:34.637Z,146.40
2023-02-27T21:30:02.508Z,184.20
2023-02-27T21:32:30.319Z,201.80
2023-02-27T21:34:57.973Z,186.60
2023-02-27T21:37:25.782Z,151.40
2023-02-27T21:39:56.724Z,156.50
2023-02-27T21:42:24.448Z,107.30
2023-02-27T21:44:52.178Z,78.60
2023-02-27T21:47:20.871Z,132.80
2023-02-27T21:49:48.918Z,60.10
2023-02-27T21:52:16.593Z,45.00
2023-02-27T21:54:44.198Z,52.10
2023-02-27T21:57:11.954Z,29.70
2023-02-27T21:59:41.727Z,39.40
2023-02-27T22:02:13.510Z,39.30
2023-02-27T22:04:41.123Z,41.60
2023-02-27T22:07:11.323Z,63.20
2023-02-27T22:09:39.341Z,69.30
2023-02-27T22:12:07.131Z,208.20
2023-02-27T22:14:36.934Z,249.90
2023-02-27T22:17:04.558Z,277.00
2023-02-27T22:19:32.331Z,335.20
2023-02-27T22:22:00.242Z,341.40
2023-02-27T22:24:30.839Z,346.50
2023-02-27T22:26:58.825Z,342.40
2023-02-27T22:29:27.118Z,315.50
2023-02-27T22:31:55.236Z,282.20
2023-02-27T22:34:23.124Z,233.20
2023-02-27T22:36:52.736Z,167.30
2023-02-27T22:39:27.353Z,262.20
2023-02-27T22:41:56.829Z,177.00
2023-02-27T22:44:24.969Z,182.50
2023-02-27T22:46:54.677Z,244.40
2023-02-27T22:49:23.611Z,182.40
2023-02-27T22:51:58.169Z,154.40
2023-02-27T22:54:32.187Z,215.00
2023-02-27T22:59:34.127Z,215.20
2023-02-27T23:02:10.344Z,187.70
2023-02-27T23:04:38.134Z,203.10
2023-02-27T23:07:05.834Z,201.30
2023-02-27T23:09:33.628Z,194.40
2023-02-27T23:12:03.669Z,217.60
2023-02-27T23:14:31.425Z,282.20
2023-02-27T23:16:59.062Z,391.70
2023-02-27T23:19:26.754Z,476.00
2023-02-27T23:21:58.477Z,536.20
2023-02-27T23:24:26.183Z,514.60
2023-02-27T23:26:54.125Z,527.10
2023-02-27T23:29:21.910Z,644.00
2023-02-27T23:31:50.010Z,672.30
2023-02-27T23:34:17.885Z,421.60
2023-02-27T23:36:45.576Z,539.40
2023-02-27T23:39:13.386Z,634.40
2023-02-27T23:41:41.662Z,624.00
2023-02-27T23:44:28.309Z,594.70
2023-02-27T23:46:55.965Z,532.20
2023-02-27T23:49:30.383Z,505.20
2023-02-27T23:52:02.320Z,497.60
2023-02-27T23:54:30.076Z,460.00
2023-02-27T23:56:57.731Z,422.10
2023-02-27T23:59:27.746Z,408.70
